Date,TemperatureHighF,TemperatureAvgF,TemperatureLowF,DewpointHighF,DewpointAvgF,DewpointLowF,HumidityHigh,HumidityAvg,HumidityLow,PressureMaxIn,PressureMinIn,WindSpeedMaxMPH,WindSpeedAvgMPH,GustSpeedMaxMPH,PrecipitationSumIn
2013-1-1,35,33,24,34,31,21,97,94,86,30.17,29.96,9,1,10,0.06
2013-1-2,34,25,19,26,22,17,94,86,62,30.21,30.13,5,0,6,0.02
2013-1-3,43,31,23,31,25,21,94,80,54,30.35,30.18,8,1,8,0.00
2013-1-4,45,33,25,29,24,22,93,72,41,30.40,30.25,11,1,12,0.00
2013-1-5,49,38,28,33,29,24,87,71,51,30.26,30.09,12,2,12,0.00
2013-1-6,48,37,28,32,27,20,90,68,44,30.29,30.10,17,2,17,0.00
2013-1-7,49,34,22,29,25,20,94,72,43,30.32,30.08,10,1,10,0.00
2013-1-8,57,42,27,42,32,23,94,70,48,30.13,30.00,9,1,9,0.01
2013-1-9,57,50,44,48,43,40,95,80,61,30.27,30.12,15,1,15,0.03
2013-1-10,54,48,43,54,47,40,98,95,81,30.20,29.71,16,2,19,0.12
2013-1-11,64,52,42,51,46,41,97,81,57,29.83,29.70,13,3,13,0.08
2013-1-12,57,48,33,53,46,31,96,90,76,29.80,29.61,19,2,19,1.67
2013-1-13,35,28,19,32,25,16,95,86,67,30.28,29.77,19,5,19,0.01
2013-1-14,31,22,15,18,15,13,90,76,53,30.43,30.27,11,1,11,0.00
2013-1-15,28,23,17,23,18,13,87,82,72,30.29,30.05,10,1,11,0.00
2013-1-16,43,30,19,25,21,17,94,72,39,30.14,30.02,7,1,7,0.01
2013-1-17,47,36,29,35,27,23,79,68,54,30.41,30.08,17,2,17,0.00
2013-1-18,57,39,23,31,26,21,94,63,33,30.44,30.13,10,2,10,0.00
2013-1-19,65,50,34,37,32,24,70,52,31,30.13,29.95,15,2,16,0.00
2013-1-20,55,44,35,36,29,20,79,58,33,30.18,30.04,9,1,9,0.00
2013-1-21,41,30,22,21,15,11,71,54,35,30.30,30.13,12,2,14,0.00
2013-1-22,35,27,19,20,15,11,77,62,45,30.32,30.20,11,2,11,0.00
2013-1-23,59,37,21,42,29,17,88,72,48,30.24,30.05,9,1,9,0.00
2013-1-24,41,32,28,30,18,12,72,55,45,30.33,30.10,14,4,16,0.00
2013-1-25,47,36,28,34,28,20,89,74,57,30.17,30.04,11,1,11,0.00
2013-1-26,56,44,33,33,28,25,81,58,31,30.23,30.11,12,2,12,0.00
2013-1-27,56,46,42,54,42,32,97,86,65,30.13,29.89,9,2,10,0.03
2013-1-28,73,65,55,62,60,54,95,82,63,29.90,29.75,16,4,16,0.00
2013-1-29,66,61,52,62,58,51,97,90,81,29.75,29.30,22,4,22,1.29
2013-1-30,52,39,28,51,34,22,97,83,66,29.93,29.32,24,5,27,0.10
2013-1-31,52,32,21,30,22,9,90,67,40,30.32,29.91,25,4,25,0.00
2013-2-1,36,24,12,16,9,4,76,54,29,30.43,30.17,15,2,15,0.00
2013-2-2,55,38,23,33,26,16,83,63,42,30.19,30.05,14,2,15,0.00
2013-2-3,55,44,38,32,27,21,73,53,29,30.14,29.93,18,3,19,0.00
2013-2-4,56,45,39,47,38,24,95,76,47,29.93,29.73,15,2,15,0.40
2013-2-5,66,47,32,43,35,30,94,67,30,29.97,29.82,13,1,13,0.00
2013-2-6,55,45,34,39,35,29,84,67,48,30.09,29.91,13,3,16,0.00
2013-2-7,63,51,41,55,46,36,95,83,65,29.92,29.74,15,2,16,0.30
2013-2-8,52,42,35,42,34,30,90,75,50,30.19,29.91,18,3,18,0.00
2013-2-9,40,35,31,36,32,28,93,87,75,30.20,29.87,14,3,15,0.01
2013-2-10,67,51,38,57,39,28,98,70,28,29.89,29.54,20,4,20,0.61
2013-2-11,55,43,36,31,28,26,69,56,34,30.07,29.88,19,2,19,0.00
2013-2-12,47,39,30,35,29,24,93,67,48,30.04,29.78,10,1,11,0.17
2013-2-13,54,41,34,40,34,31,96,79,44,29.90,29.80,13,2,17,0.17
2013-2-14,61,48,37,36,32,29,78,55,37,30.00,29.83,15,3,15,0.00
2013-2-15,45,39,28,32,23,13,74,54,32,30.18,29.99,16,3,16,0.00
2013-2-16,41,32,25,21,17,13,80,54,35,30.22,30.08,14,1,18,0.00
2013-2-17,61,45,30,35,26,18,74,49,29,30.08,29.80,13,2,13,0.00
2013-2-18,54,49,37,51,42,29,92,76,57,29.93,29.52,30,6,30,0.22
2013-2-19,48,36,28,29,20,13,78,54,27,30.20,29.92,19,4,24,0.00
2013-2-20,35,30,26,16,13,10,57,49,38,30.26,30.09,14,2,14,0.00
2013-2-21,32,30,27,30,27,16,96,89,55,30.10,29.69,23,3,23,0.08
2013-2-22,36,31,25,32,28,23,97,89,74,30.01,29.75,8,0,8,0.20
2013-2-23,43,32,21,29,24,19,92,75,48,30.02,29.88,8,1,8,0.02
2013-2-24,54,39,25,35,30,23,95,71,44,30.00,29.82,15,3,15,0.00
2013-2-25,54,41,34,39,33,27,94,74,42,29.83,29.24,25,4,25,1.06
2013-2-26,39,36,33,38,34,30,96,91,83,29.73,29.19,21,4,21,0.21
2013-2-27,43,36,34,33,29,26,84,75,59,29.92,29.69,22,5,22,0.00
2013-2-28,41,34,30,29,26,24,84,73,59,30.07,29.90,21,5,21,0.00
2013-3-1,34,31,27,29,25,23,87,79,71,30.13,30.03,18,4,18,0.00
2013-3-2,39,30,24,26,20,17,88,67,46,30.21,30.11,18,3,18,0.01
2013-3-3,52,36,21,28,23,17,90,62,34,30.15,29.83,11,2,11,0.00
2013-3-4,55,45,37,47,38,27,95,76,67,29.83,29.57,12,2,14,0.00
2013-3-5,46,40,32,43,29,21,95,67,38,30.14,29.64,30,8,31,0.06
2013-3-6,48,37,28,26,23,20,71,57,37,30.29,30.14,18,3,23,0.00
2013-3-7,58,44,32,34,30,25,81,61,38,30.25,30.11,12,2,13,0.00
2013-3-8,57,45,32,36,33,29,91,65,43,30.24,30.03,15,3,15,0.00
2013-3-9,71,58,46,54,42,31,82,56,25,30.03,29.63,20,5,22,0.01
2013-3-10,61,50,38,55,47,33,97,89,72,29.75,29.50,17,4,22,1.41
2013-3-11,45,36,31,33,28,26,92,74,53,29.94,29.74,16,4,18,0.00
2013-3-12,58,43,30,30,27,22,85,56,30,30.19,29.93,20,3,20,0.00
2013-3-13,53,40,30,25,23,18,74,51,27,30.34,30.18,14,3,15,0.00
2013-3-14,73,51,31,41,31,23,76,49,27,30.29,29.99,16,2,18,0.00
2013-3-15,83,68,53,49,44,40,71,45,23,29.99,29.64,19,3,19,0.00
2013-3-16,78,65,50,50,45,38,65,49,35,29.76,29.61,16,3,19,0.00
2013-3-17,50,42,38,39,38,36,97,88,65,29.84,29.59,16,3,16,0.20
2013-3-18,54,45,40,45,39,34,97,82,51,29.94,29.58,24,3,24,0.00
2013-3-19,55,44,32,34,26,13,84,53,20,30.13,29.92,9,1,10,0.00
2013-3-20,51,41,32,33,21,9,85,50,22,30.21,30.02,27,4,29,0.00
2013-3-21,43,33,28,30,19,11,96,61,31,30.03,29.82,13,2,14,0.00
2013-3-22,36,33,30,34,32,29,97,96,94,29.88,29.80,9,2,9,0.34
2013-3-23,42,38,34,39,36,32,97,92,85,29.88,29.62,11,1,11,0.19
2013-3-24,41,37,30,40,32,23,98,84,69,29.94,29.49,33,6,33,0.04
2013-3-25,35,30,25,26,22,18,76,70,61,30.20,29.92,23,6,24,0.00
2013-3-26,47,36,27,26,24,22,85,64,40,30.31,30.19,14,3,14,0.00
2013-3-27,58,42,25,34,27,22,93,59,32,30.29,30.11,11,2,14,0.00
2013-3-28,69,55,44,47,39,33,70,56,38,30.18,30.01,11,2,11,0.00
2013-3-29,67,56,49,52,48,44,93,75,55,30.08,29.99,15,1,15,0.03
2013-3-30,65,54,50,55,50,46,94,86,70,30.04,29.75,16,3,18,0.43
2013-3-31,68,57,48,51,47,39,98,71,46,29.85,29.72,15,2,16,0.16
2013-4-1,65,53,45,44,39,34,82,62,39,30.06,29.82,13,2,14,0.03
2013-4-2,45,39,36,34,32,27,91,77,54,30.19,30.05,10,2,10,0.10
2013-4-3,54,44,34,34,28,23,91,58,31,30.20,30.06,15,2,15,0.00
2013-4-4,57,48,41,34,30,26,72,51,34,30.08,29.91,13,2,14,0.00
2013-4-5,71,55,38,39,34,30,77,49,26,30.08,29.91,8,1,9,0.00
2013-4-6,74,62,49,47,42,36,62,50,33,29.92,29.68,21,3,21,0.00
2013-4-7,78,66,54,57,52,46,78,61,42,29.80,29.66,18,3,18,0.00
2013-4-8,77,66,59,61,57,53,88,73,58,29.71,29.63,16,3,17,0.00
2013-4-9,81,71,64,65,60,56,79,69,50,29.73,29.56,19,4,19,0.00
2013-4-10,82,68,42,67,59,40,95,76,54,29.66,29.45,21,5,21,0.51
2013-4-11,53,43,37,40,36,32,94,76,45,29.70,29.58,17,3,18,0.00
2013-4-12,62,48,37,36,33,31,84,59,34,29.91,29.69,19,2,19,0.00
2013-4-13,68,54,41,46,40,35,84,61,38,29.96,29.74,9,1,10,0.00
2013-4-14,77,63,46,58,50,43,90,67,32,29.76,29.45,14,3,14,0.00
2013-4-15,76,66,59,64,60,56,92,81,66,29.70,29.59,11,2,15,0.00
2013-4-16,85,72,59,69,62,57,96,75,46,29.83,29.68,9,1,11,0.00
2013-4-17,83,73,60,69,64,55,97,74,54,29.83,29.54,15,3,15,0.00
2013-4-18,76,58,41,67,53,32,96,82,68,29.77,29.40,26,5,26,0.99
2013-4-19,56,45,37,34,29,22,73,55,29,30.00,29.76,21,4,22,0.00
2013-4-20,66,52,35,42,36,31,92,59,29,30.12,29.99,8,0,8,0.00
2013-4-21,67,57,45,44,40,36,80,56,35,30.20,30.04,14,2,15,0.00
2013-4-22,72,58,42,45,41,37,88,57,28,30.10,29.83,14,1,14,0.00
2013-4-23,73,58,40,57,49,38,95,72,53,29.92,29.68,16,2,16,0.04
2013-4-24,55,45,38,38,35,30,95,70,39,30.18,29.90,17,2,17,0.59
2013-4-25,68,54,35,41,35,29,91,54,23,30.26,30.12,9,0,9,0.00
2013-4-26,57,50,47,48,45,40,96,86,54,30.29,30.06,10,1,12,0.62
2013-4-27,56,52,47,55,50,46,97,96,93,30.09,29.84,13,1,15,0.41
2013-4-28,67,56,50,54,51,48,96,82,57,29.90,29.77,13,1,16,0.00
2013-4-29,82,65,46,64,56,44,98,74,46,29.82,29.65,8,1,8,0.00
2013-4-30,82,71,59,61,54,46,88,60,29,29.76,29.68,12,1,12,0.00
2013-5-1,79,67,56,66,59,53,93,77,59,29.92,29.75,11,1,11,0.00
2013-5-2,64,56,41,62,54,40,96,93,89,30.02,29.88,22,2,22,0.40
2013-5-3,41,37,36,40,36,34,96,95,93,30.00,29.81,18,3,18,0.31
2013-5-4,48,41,35,40,37,34,97,87,69,29.87,29.76,8,0,8,0.02
2013-5-5,56,48,37,50,43,35,96,85,64,29.91,29.82,17,2,18,0.01
2013-5-6,68,59,52,57,52,49,94,79,59,29.88,29.81,13,2,14,0.01
2013-5-7,76,65,52,58,54,50,95,70,42,29.91,29.82,8,1,9,0.00
2013-5-8,82,68,54,62,56,52,94,68,41,29.91,29.79,6,0,7,0.00
2013-5-9,83,68,62,62,58,50,92,73,34,29.84,29.72,8,0,9,0.04
2013-5-10,74,62,56,61,58,52,97,85,57,29.89,29.71,12,1,14,0.00
2013-5-11,75,62,50,56,48,30,96,64,24,30.03,29.87,17,2,18,0.00
2013-5-12,67,57,43,41,35,28,74,46,26,30.14,30.00,15,1,15,0.00
2013-5-13,79,64,48,53,46,36,78,54,33,30.08,29.90,9,0,10,0.00
2013-5-14,91,76,62,60,54,50,70,49,26,29.90,29.79,8,0,10,0.00
2013-5-15,83,72,60,68,60,51,93,67,56,29.85,29.74,7,0,7,0.00
2013-5-16,65,63,61,63,60,58,97,92,84,29.79,29.71,7,0,8,0.19
2013-5-17,77,68,62,67,64,61,98,87,65,29.79,29.71,6,0,6,0.00
2013-5-18,82,72,63,74,68,62,98,89,75,29.82,29.69,7,1,8,0.00
2013-5-19,86,76,67,72,68,64,99,79,51,29.71,29.56,11,1,12,0.00
2013-5-20,78,74,63,72,68,60,94,82,74,29.72,29.56,13,1,15,0.27
2013-5-21,66,63,60,65,61,59,97,95,89,29.77,29.46,13,0,13,0.62
2013-5-22,79,67,56,64,59,55,98,77,47,29.77,29.60,9,0,12,0.01
2013-5-23,78,67,57,64,58,54,93,74,54,30.01,29.77,11,1,11,0.00
2013-5-24,73,63,54,54,50,44,91,64,38,30.18,30.01,13,1,13,0.00
2013-5-25,78,66,53,63,55,46,85,69,53,30.12,29.95,7,0,7,0.00
2013-5-26,84,73,60,70,63,56,89,74,56,29.99,29.84,8,0,9,0.00
2013-5-27,83,74,64,69,64,61,91,74,56,29.86,29.68,7,1,8,0.00
2013-5-28,82,76,71,68,65,64,81,71,58,29.76,29.63,9,1,10,0.00
2013-5-29,83,75,65,69,65,62,90,73,56,29.78,29.64,10,1,11,0.00
2013-5-30,80,73,64,70,68,62,96,84,67,29.76,29.60,18,1,18,0.27
2013-5-31,84,74,65,75,70,64,96,86,71,29.73,29.53,8,1,10,0.34
2013-6-1,76,69,64,73,66,59,98,91,81,29.78,29.52,10,0,12,0.91
2013-6-2,71,63,57,60,58,56,96,82,65,29.86,29.78,11,1,12,0.00
2013-6-3,74,65,56,61,57,54,94,77,54,29.91,29.77,7,0,7,0.00
2013-6-4,78,68,57,64,60,55,95,77,55,29.87,29.75,8,0,8,0.00
2013-6-5,81,71,62,69,64,59,95,80,58,29.81,29.65,13,0,17,0.00
2013-6-6,76,69,61,64,61,59,94,78,60,29.74,29.67,10,1,13,0.00
2013-6-7,77,67,56,59,56,53,92,71,47,29.78,29.71,11,1,13,0.00
2013-6-8,81,70,57,62,58,54,95,69,43,29.80,29.70,7,0,7,0.00
2013-6-9,77,70,63,71,64,57,94,82,64,29.76,29.64,8,0,8,0.07
2013-6-10,90,78,66,71,66,59,96,69,45,29.73,29.66,14,0,14,0.00
2013-6-11,95,82,68,76,68,62,91,66,36,29.82,29.73,6,0,7,0.00
2013-6-12,92,82,70,74,71,68,94,70,49,29.80,29.68,11,0,11,0.00
2013-6-13,88,80,72,73,69,64,87,70,49,29.80,29.70,12,1,12,0.00
2013-6-14,86,76,65,70,66,63,94,73,53,29.87,29.78,7,0,7,0.00
2013-6-15,88,77,66,70,66,61,88,70,50,29.86,29.75,7,0,7,0.00
2013-6-16,85,75,67,75,70,63,95,83,64,29.84,29.73,13,0,13,0.44
2013-6-17,81,71,65,73,68,64,97,90,73,29.80,29.68,18,0,20,0.93
2013-6-18,84,73,62,70,65,61,98,78,50,29.84,29.73,9,0,9,0.00
2013-6-19,88,76,62,70,65,60,93,71,45,29.88,29.79,7,0,7,0.00
2013-6-20,88,79,67,72,68,64,92,72,52,29.92,29.83,6,0,6,0.00
2013-6-21,89,81,70,76,72,66,91,75,59,29.93,29.83,7,0,7,0.00
2013-6-22,89,80,72,76,72,70,94,77,56,29.91,29.78,6,0,7,0.00
2013-6-23,90,80,70,76,71,67,94,75,55,29.85,29.75,5,0,7,0.00
2013-6-24,90,81,72,76,72,70,92,74,56,29.89,29.77,6,0,8,0.00
2013-6-25,89,81,73,76,72,70,91,75,55,29.81,29.67,6,0,7,0.00
2013-6-26,93,84,74,78,74,70,89,74,56,29.72,29.62,7,0,8,0.00
2013-6-27,98,86,75,80,75,70,92,71,44,29.75,29.65,11,1,11,0.00
2013-6-28,91,81,70,75,68,60,96,67,40,29.70,29.58,14,2,16,0.14
2013-6-29,87,77,67,64,59,53,83,56,34,29.64,29.55,19,3,21,0.00
2013-6-30,78,70,63,64,60,58,85,71,55,29.74,29.60,15,2,17,0.00
2013-7-1,80,71,62,63,59,56,91,69,48,29.82,29.73,15,2,17,0.00
2013-7-2,79,69,59,61,57,54,84,66,45,29.90,29.80,13,1,13,0.00
2013-7-3,83,71,59,61,57,54,90,65,39,29.94,29.83,7,0,7,0.00
2013-7-4,86,73,60,64,58,55,90,62,37,29.90,29.78,10,0,13,0.00
2013-7-5,87,75,61,68,62,57,91,66,38,29.88,29.77,8,0,9,0.00
2013-7-6,89,77,64,70,64,60,95,68,40,29.86,29.77,7,0,8,0.00
2013-7-7,91,80,66,72,66,63,94,67,40,29.88,29.80,5,0,6,0.00
2013-7-8,93,82,70,74,70,67,90,69,47,29.92,29.83,5,0,6,0.00
2013-7-9,95,85,75,75,70,69,85,64,44,29.90,29.76,6,0,6,0.00
2013-7-10,96,84,76,74,70,68,80,63,43,29.83,29.68,8,0,8,0.00
2013-7-11,93,82,73,74,67,57,90,63,34,29.82,29.74,10,1,10,0.00
2013-7-12,88,77,65,62,56,48,80,52,26,29.90,29.80,9,1,10,0.00
2013-7-13,87,75,61,63,59,56,85,60,36,29.89,29.78,6,0,6,0.00
2013-7-14,88,76,63,66,62,58,87,64,37,29.91,29.81,11,0,11,0.00
2013-7-15,88,78,70,73,69,66,93,77,53,30.00,29.89,11,1,11,0.00
2013-7-16,91,81,71,75,71,68,96,73,47,30.08,29.99,11,1,14,0.00
2013-7-17,94,83,71,73,69,65,93,66,39,30.12,29.98,8,0,11,0.00
2013-7-18,96,82,72,73,68,64,84,65,37,30.03,29.84,10,0,10,0.00
2013-7-19,94,78,70,72,69,67,95,77,42,29.87,29.72,19,0,24,0.02
2013-7-20,94,76,68,74,70,66,97,84,45,29.76,29.66,15,0,15,0.50
2013-7-21,85,73,69,76,71,68,98,93,70,29.76,29.66,10,0,10,0.32
2013-7-22,83,75,69,75,71,67,98,87,67,29.75,29.65,8,0,8,0.02
2013-7-23,96,77,67,80,70,66,97,81,51,29.74,29.59,18,1,18,0.62
2013-7-24,83,74,68,72,70,67,98,86,67,29.82,29.65,9,1,9,0.01
2013-7-25,82,74,63,67,64,60,92,72,54,29.92,29.82,8,0,8,0.00
2013-7-26,71,68,66,68,66,64,98,91,81,29.89,29.80,3,0,3,0.34
2013-7-27,81,72,65,69,64,58,99,78,48,29.84,29.76,9,1,10,0.00
2013-7-28,76,68,63,66,62,58,94,83,67,29.89,29.80,4,0,4,0.01
2013-7-29,84,74,65,73,68,62,95,81,66,29.95,29.85,7,1,8,0.00
2013-7-30,80,75,70,75,72,67,98,92,81,29.88,29.79,5,0,5,0.72
2013-7-31,89,79,73,79,74,70,99,87,65,29.85,29.76,11,0,12,0.69
2013-8-1,84,76,66,71,68,65,97,78,54,29.91,29.80,5,0,8,0.00
2013-8-2,86,77,67,75,71,66,96,82,65,29.83,29.71,8,0,8,0.00
2013-8-3,82,75,67,75,71,66,98,89,73,29.90,29.69,12,0,12,1.86
2013-8-4,78,73,70,73,71,69,98,94,82,29.95,29.85,9,0,9,0.16
2013-8-5,81,74,69,78,72,68,99,95,89,29.88,29.67,5,0,17,0.85
2013-8-6,82,75,69,78,73,68,98,94,85,29.79,29.64,7,0,9,0.06
2013-8-7,84,77,73,76,74,69,98,90,75,29.81,29.62,13,0,13,0.24
2013-8-8,82,75,71,75,73,70,99,94,78,29.78,29.67,9,0,9,1.13
2013-8-9,83,75,71,76,72,70,99,92,69,29.83,29.73,5,0,5,0.17
2013-8-10,77,72,70,73,71,69,99,95,84,29.93,29.81,7,0,9,0.80
2013-8-11,80,74,70,76,72,70,99,95,85,29.93,29.83,5,0,5,0.13
2013-8-12,89,76,72,79,73,70,99,93,68,29.86,29.75,13,0,14,0.04
2013-8-13,80,74,69,73,70,64,99,87,70,29.86,29.77,6,0,6,0.00
2013-8-14,75,68,61,64,59,54,92,74,49,29.97,29.86,9,1,10,0.00
2013-8-15,74,65,55,59,56,53,94,75,52,29.96,29.85,6,0,8,0.00
2013-8-16,74,65,56,62,58,55,96,80,58,29.94,29.87,8,0,8,0.00
2013-8-17,78,69,59,66,62,57,93,79,60,29.95,29.86,8,1,9,0.00
2013-8-18,81,71,62,68,65,60,97,82,58,29.96,29.86,9,0,9,0.00
2013-8-19,82,72,63,69,66,62,98,81,56,29.95,29.82,6,0,6,0.00
2013-8-20,85,74,65,71,66,62,98,78,49,29.92,29.83,3,0,4,0.00
2013-8-21,88,77,66,74,68,64,98,78,50,29.94,29.85,6,0,6,0.00
2013-8-22,89,79,69,76,70,66,96,76,52,29.93,29.81,5,0,6,0.00
2013-8-23,89,78,70,78,72,69,97,82,59,29.90,29.81,7,0,7,0.00
2013-8-24,89,79,70,75,71,68,97,78,52,29.97,29.86,6,0,7,0.00
2013-8-25,89,79,69,77,72,68,97,80,55,30.03,29.94,7,0,7,0.00
2013-8-26,89,80,70,75,72,69,97,79,57,30.02,29.90,5,0,6,0.00
2013-8-27,91,80,71,73,68,64,89,71,45,29.93,29.82,5,0,5,0.00
2013-8-28,91,81,69,74,70,66,91,71,52,29.89,29.80,6,0,6,0.00
2013-8-29,92,81,70,76,72,69,97,75,49,29.88,29.77,8,0,8,0.00
2013-8-30,94,83,72,78,73,69,91,73,52,29.80,29.67,5,0,5,0.00
2013-8-31,96,85,75,78,73,70,89,70,49,29.70,29.59,4,0,5,0.00
2013-9-1,83,79,73,75,72,69,92,80,68,29.69,29.58,7,0,7,0.01
2013-9-2,87,77,69,72,68,62,97,75,51,29.78,29.66,9,1,9,0.00
2013-9-3,85,74,62,67,62,57,91,69,42,29.87,29.77,7,0,7,0.00
2013-9-4,85,72,60,66,61,54,93,70,37,29.97,29.86,7,0,7,0.00
2013-9-5,85,73,61,68,63,57,95,72,42,30.01,29.91,8,0,8,0.00
2013-9-6,85,74,62,69,64,58,96,75,43,29.97,29.83,5,0,6,0.00
2013-9-7,90,78,66,72,67,64,96,72,45,29.87,29.74,5,0,6,0.00
2013-9-8,94,80,69,74,70,65,90,71,47,29.78,29.68,6,0,6,0.00
2013-9-9,94,82,72,74,70,66,94,70,42,29.81,29.71,6,0,7,0.00
2013-9-10,94,81,69,72,67,62,91,66,37,29.92,29.79,4,0,5,0.00
2013-9-11,93,79,71,75,70,67,91,75,46,29.94,29.84,5,0,8,0.03
2013-9-12,90,76,69,74,71,67,95,84,54,29.88,29.77,9,0,9,0.17
2013-9-13,76,69,62,70,58,53,89,69,47,29.91,29.80,9,0,10,0.00
2013-9-14,75,65,53,56,52,49,91,66,41,29.95,29.84,7,0,8,0.00
2013-9-15,84,69,53,63,56,49,89,65,42,29.91,29.84,6,0,6,0.00
2013-9-16,76,70,64,68,63,59,90,80,66,30.01,29.87,7,0,7,0.00
2013-9-17,84,73,64,68,64,61,92,76,52,29.99,29.84,8,0,8,0.00
2013-9-18,84,75,68,72,68,65,92,81,65,29.86,29.77,4,0,4,0.00
2013-9-19,90,76,69,74,69,66,92,81,55,29.83,29.71,10,0,10,0.00
2013-9-20,74,67,60,69,65,57,98,94,84,29.76,29.68,19,1,19,0.95
2013-9-21,74,62,52,57,52,46,96,72,38,29.82,29.72,13,1,13,0.00
2013-9-22,74,62,50,57,52,47,93,72,43,29.83,29.71,7,0,8,0.00
2013-9-23,77,64,51,59,55,49,97,76,53,29.79,29.67,10,1,10,0.00
2013-9-24,82,68,57,65,59,56,97,76,49,29.73,29.59,9,0,9,0.00
2013-9-25,77,67,58,64,60,57,95,79,56,29.68,29.61,9,0,10,0.00
2013-9-26,82,69,58,68,63,57,98,82,55,29.80,29.68,7,0,7,0.00
2013-9-27,83,72,62,69,64,61,98,78,58,29.86,29.76,8,0,8,0.00
2013-9-28,84,72,64,69,65,62,97,82,57,29.83,29.73,20,0,20,0.12
2013-9-29,70,66,60,68,64,59,97,92,82,29.85,29.76,8,0,9,0.09
2013-9-30,77,69,64,68,65,63,98,89,71,29.78,29.69,8,0,8,0.00
2013-10-1,84,74,67,72,68,65,97,83,60,29.81,29.72,4,0,5,0.00
2013-10-2,82,71,65,72,68,64,98,89,67,29.86,29.75,8,0,8,0.01
2013-10-3,82,72,63,73,68,62,99,87,67,29.80,29.68,5,0,6,0.00
2013-10-4,85,75,65,72,68,64,98,82,55,29.77,29.69,6,0,6,0.00
2013-10-5,73,64,50,72,62,48,98,94,83,29.81,29.68,14,1,16,0.72
2013-10-6,62,54,45,50,47,44,97,79,54,29.82,29.74,16,1,21,0.00
2013-10-7,67,57,47,52,48,45,93,73,48,29.97,29.81,13,1,13,0.00
2013-10-8,70,58,47,54,49,46,97,76,48,30.01,29.90,11,0,11,0.00
2013-10-9,73,59,47,57,52,45,95,78,53,29.97,29.88,7,0,7,0.00
2013-10-10,75,63,51,60,56,49,98,81,54,29.95,29.80,9,0,9,0.00
2013-10-11,77,65,55,65,59,54,98,83,60,29.83,29.71,8,0,8,0.00
2013-10-12,76,66,60,66,61,56,96,85,66,29.98,29.74,10,1,11,0.27
2013-10-13,72,63,55,56,51,47,85,66,44,30.15,29.98,11,1,11,0.00
2013-10-14,69,60,51,61,54,47,94,82,65,30.09,29.84,7,0,8,0.01
2013-10-15,67,62,54,66,61,51,98,94,81,29.85,29.72,12,0,12,0.38
2013-10-16,62,54,48,52,48,45,97,82,57,29.91,29.79,10,1,11,0.34
2013-10-17,63,53,45,50,46,44,96,79,52,29.87,29.79,12,0,13,0.01
2013-10-18,65,53,43,53,47,41,97,82,49,29.90,29.78,10,0,10,0.12
2013-10-19,56,48,41,46,41,37,96,78,51,29.93,29.82,13,1,14,0.13
2013-10-20,67,53,40,47,42,37,91,69,39,29.88,29.75,6,0,8,0.00
2013-10-21,60,51,43,51,48,42,96,87,68,29.91,29.79,9,1,9,0.18
2013-10-22,66,50,37,49,43,36,98,78,49,29.92,29.71,13,1,13,0.01
2013-10-23,56,47,38,42,38,35,90,73,47,30.01,29.85,14,1,14,0.00
2013-10-24,53,45,39,40,36,29,92,71,42,30.26,29.93,13,1,14,0.00
2013-10-25,53,42,32,34,30,26,87,64,37,30.37,30.09,8,0,8,0.00
2013-10-26,67,52,38,56,45,32,86,76,62,30.09,29.89,9,0,9,0.00
2013-10-27,61,53,47,51,44,39,88,73,52,29.93,29.83,6,0,6,0.00
2013-10-28,66,54,43,56,50,42,98,89,67,30.03,29.87,4,0,5,0.00
2013-10-29,64,59,50,63,58,49,98,97,96,30.03,29.85,6,0,6,0.41
2013-10-30,70,66,61,65,63,60,97,91,81,29.89,29.67,6,0,7,0.39
2013-10-31,74,63,52,66,59,48,99,88,45,29.67,29.24,17,1,19,0.27
2013-11-1,67,56,48,49,45,42,92,69,42,29.78,29.55,13,1,13,0.01
2013-11-2,56,48,42,44,40,37,90,75,52,30.06,29.77,18,2,18,0.00
2013-11-3,60,46,35,42,38,33,96,75,45,30.12,29.93,9,1,9,0.00
2013-11-4,55,51,46,50,45,40,97,81,68,30.05,29.92,7,1,7,0.08
2013-11-5,58,54,50,57,53,50,98,96,90,30.04,29.84,6,0,10,0.05
2013-11-6,60,50,39,59,47,35,98,92,80,30.15,29.75,17,3,17,0.15
2013-11-7,58,45,34,41,36,33,95,74,42,30.29,30.15,10,1,12,0.00
2013-11-8,62,48,34,40,38,33,97,71,38,30.20,29.96,8,0,8,0.00
2013-11-9,63,52,44,47,43,38,83,72,54,30.08,29.96,7,0,7,0.00
2013-11-10,64,53,45,47,41,36,85,65,36,30.22,30.08,9,0,9,0.00
2013-11-11,68,54,40,52,45,37,95,73,49,30.18,29.99,16,1,16,0.00
2013-11-12,45,35,26,39,22,13,83,60,33,30.55,30.17,19,2,20,0.00
2013-11-13,47,33,22,23,18,15,81,57,28,30.56,30.22,6,0,7,0.00
2013-11-14,56,42,26,35,24,18,82,51,25,30.22,29.91,7,1,9,0.01
2013-11-15,52,47,41,49,42,33,92,84,64,29.91,29.76,7,1,8,0.02
2013-11-16,66,62,51,64,57,49,96,86,76,29.77,29.47,17,4,20,0.39
2013-11-17,80,68,50,67,49,22,96,57,22,29.85,29.38,22,3,22,0.01
2013-11-18,64,51,42,40,30,21,75,48,19,30.11,29.85,12,1,12,0.00
2013-11-19,56,45,37,33,29,25,73,56,35,30.14,29.98,10,1,10,0.00
2013-11-20,61,47,37,35,31,25,76,55,26,30.00,29.80,10,2,10,0.00
2013-11-21,53,50,46,53,47,35,98,90,54,30.02,29.86,8,0,8,0.79
2013-11-22,53,40,33,52,38,31,98,91,85,30.33,30.01,16,4,18,0.01
2013-11-23,40,34,23,32,23,10,94,66,37,30.51,30.32,13,3,15,0.04
2013-11-24,29,24,17,14,12,10,78,61,49,30.56,30.27,8,1,9,0.00
2013-11-25,32,30,28,30,24,14,94,79,54,30.28,30.04,8,1,9,0.05
2013-11-26,48,36,28,33,28,18,94,75,52,30.12,29.90,23,4,25,0.01
2013-11-27,37,27,20,18,14,12,76,60,37,30.26,30.12,16,3,19,0.00
2013-11-28,55,37,22,30,23,15,78,59,32,30.30,30.15,9,1,9,0.00
2013-11-29,54,41,30,34,30,24,81,65,43,30.38,30.21,8,1,8,0.00
2013-11-30,58,49,31,44,40,28,91,71,53,30.20,29.97,13,2,13,0.00
2013-12-1,59,50,43,50,45,40,94,83,71,30.00,29.71,5,0,5,0.00
2013-12-2,63,50,42,50,46,41,98,87,59,29.71,29.49,6,0,7,0.00
2013-12-3,63,54,46,55,51,45,98,91,71,29.53,29.40,11,2,11,0.00
2013-12-4,68,56,43,57,50,38,98,83,56,29.71,29.42,17,3,17,0.00
2013-12-5,43,30,23,38,26,20,93,87,72,30.10,29.71,20,4,20,0.01
2013-12-6,23,20,18,20,18,14,93,91,85,30.41,30.06,11,2,14,0.00
2013-12-7,23,17,6,16,11,3,87,79,67,30.54,30.23,10,1,10,0.06
2013-12-8,27,22,18,26,20,12,96,91,75,30.23,29.90,8,0,8,0.00
2013-12-9,34,28,23,27,22,17,95,80,68,30.18,30.02,13,2,14,0.07
2013-12-10,35,25,16,24,20,14,95,82,61,30.28,30.14,12,2,13,0.14
2013-12-11,39,27,17,28,21,13,97,79,58,30.49,30.17,11,1,14,0.23
2013-12-12,39,26,13,24,17,9,89,70,45,30.49,30.17,7,1,7,0.22
2013-12-13,35,31,22,32,27,18,97,87,68,30.17,29.73,7,1,7,0.42
2013-12-14,36,32,29,34,30,25,97,92,87,30.06,29.68,23,4,23,0.42
2013-12-15,44,34,22,32,27,20,94,77,57,30.10,29.96,14,2,14,0.33
2013-12-16,60,48,40,39,33,31,71,58,39,29.96,29.87,13,2,13,0.50
2013-12-17,56,43,34,39,33,29,90,69,40,30.15,29.94,17,1,19,0.00
2013-12-18,58,44,28,41,33,26,90,68,44,30.13,29.83,10,2,11,0.00
2013-12-19,58,53,44,54,47,39,85,79,70,29.83,29.60,15,3,15,0.00
2013-12-20,68,55,40,61,52,38,95,88,75,29.67,29.57,14,2,15,0.06
2013-12-21,42,39,37,42,38,36,98,97,95,29.58,29.33,19,2,19,0.65
2013-12-22,39,34,28,39,31,23,98,90,79,30.16,29.51,17,3,17,0.01
2013-12-23,35,27,19,25,20,16,90,77,57,30.42,30.16,14,3,15,0.01
2013-12-24,32,22,13,19,16,11,91,76,55,30.47,30.22,12,2,12,0.00
2013-12-25,47,33,22,35,28,18,92,80,62,30.23,30.13,13,1,13,0.00
2013-12-26,49,36,24,35,28,23,97,77,43,30.27,30.16,8,1,8,0.00
2013-12-27,57,40,26,35,29,24,92,66,34,30.28,30.15,8,1,8,0.00
2013-12-28,50,41,30,35,31,26,89,70,52,30.16,29.78,9,1,9,0.00
2013-12-29,44,34,23,37,28,16,83,77,73,30.10,29.76,18,3,19,0.00
2013-12-30,35,25,17,22,16,11,82,69,48,30.19,30.08,7,1,7,0.00
2013-12-31,54,36,21,28,24,18,88,63,30,30.26,30.05,11,1,11,0.00
2014-1-1,54,40,29,36,30,25,87,69,42,30.06,29.76,21,2,21,0.00
2014-1-2,37,22,14,27,14,7,82,69,51,30.34,29.83,22,6,24,0.00